createdAt,value
2022-09-11T00:00:02.996Z,99476.31
2022-09-11T00:05:14.582Z,99473.38
2022-09-11T00:10:16.535Z,99466.53
2022-09-11T00:15:18.280Z,99464.88
2022-09-11T00:20:19.941Z,99456.97
2022-09-11T00:25:21.580Z,99459.91
2022-09-11T00:30:23.256Z,99457.41
2022-09-11T00:35:25.902Z,99463.03
2022-09-11T00:40:27.587Z,99468.03
2022-09-11T00:45:29.291Z,99470.97
2022-09-11T00:50:32.742Z,99470.56
2022-09-11T00:55:37.934Z,99466.16
2022-09-11T01:00:43.286Z,99467.00
2022-09-11T01:05:48.316Z,99472.16
2022-09-11T01:11:20.468Z,99463.03
2022-09-11T01:16:43.849Z,99460.94
2022-09-11T01:21:52.659Z,99460.28
2022-09-11T01:27:19.349Z,99455.63
2022-09-11T01:32:27.860Z,99445.81
2022-09-11T01:37:56.164Z,99453.28
2022-09-11T01:43:06.246Z,99460.53
2022-09-11T01:48:09.925Z,99456.19
2022-09-11T01:53:14.657Z,99455.34
2022-09-11T01:58:24.829Z,99459.03
2022-09-11T02:03:29.976Z,99453.41
2022-09-11T02:08:38.210Z,99466.47
2022-09-11T02:13:50.041Z,99460.88
2022-09-11T02:19:04.794Z,99460.25
2022-09-11T02:24:06.943Z,99459.41
2022-09-11T02:29:08.828Z,99458.53
2022-09-11T02:34:14.567Z,99450.03
2022-09-11T02:39:46.385Z,99464.75
2022-09-11T02:45:07.481Z,99458.94
2022-09-11T02:50:18.963Z,99456.72
2022-09-11T02:55:39.895Z,99452.09
2022-09-11T03:00:42.549Z,99460.31
2022-09-11T03:05:44.466Z,99460.56
2022-09-11T03:10:46.773Z,99466.41
2022-09-11T03:15:48.679Z,99463.72
2022-09-11T03:20:51.889Z,99465.03
2022-09-11T03:25:55.596Z,99469.75
2022-09-11T03:30:58.259Z,99468.66
2022-09-11T03:36:01.233Z,99476.56
2022-09-11T03:41:03.531Z,99479.38
2022-09-11T03:46:06.833Z,99494.00
2022-09-11T03:51:08.922Z,99494.66
2022-09-11T03:56:12.104Z,99494.38
2022-09-11T04:01:20.004Z,99496.00
2022-09-11T04:06:23.600Z,99491.34
2022-09-11T04:11:25.384Z,99493.91
2022-09-11T04:16:27.110Z,99507.81
2022-09-11T04:21:31.242Z,99514.53
2022-09-11T04:26:34.200Z,99508.75
2022-09-11T04:31:44.068Z,99517.59
2022-09-11T04:36:48.624Z,99514.09
2022-09-11T04:41:55.947Z,99511.03
2022-09-11T04:46:57.811Z,99508.63
2022-09-11T04:52:05.895Z,99513.69
2022-09-11T04:57:09.201Z,99520.88
2022-09-11T05:02:12.593Z,99524.66
2022-09-11T05:07:17.661Z,99523.34
2022-09-11T05:12:22.937Z,99530.94
2022-09-11T05:17:24.534Z,99540.94
2022-09-11T05:22:26.520Z,99547.00
2022-09-11T05:27:31.727Z,99554.09
2022-09-11T05:32:33.465Z,99556.81
2022-09-11T05:37:36.807Z,99556.38
2022-09-11T05:42:38.795Z,99563.44
2022-09-11T05:47:40.449Z,99561.84
2022-09-11T05:52:42.180Z,99584.50
2022-09-11T05:57:43.878Z,99582.84
2022-09-11T06:02:48.976Z,99584.22
2022-09-11T06:07:52.263Z,99591.31
2022-09-11T06:12:54.047Z,99608.91
2022-09-11T06:17:56.188Z,99608.06
2022-09-11T06:22:57.914Z,99605.81
2022-09-11T06:28:01.639Z,99617.06
2022-09-11T06:33:03.922Z,99618.75
2022-09-11T06:38:05.732Z,99626.44
2022-09-11T06:43:08.218Z,99627.69
2022-09-11T06:48:09.923Z,99623.47
2022-09-11T06:53:14.260Z,99628.28
2022-09-11T06:58:23.156Z,99625.09
2022-09-11T07:03:25.307Z,99625.50
2022-09-11T07:08:28.914Z,99619.25
2022-09-11T07:13:36.742Z,99630.22
2022-09-11T07:18:42.444Z,99639.25
2022-09-11T07:23:50.818Z,99652.25
2022-09-11T07:28:54.748Z,99649.91
2022-09-11T07:33:57.668Z,99654.78
2022-09-11T07:39:01.378Z,99654.91
2022-09-11T07:44:25.910Z,99656.44
2022-09-11T07:49:28.292Z,99663.97
2022-09-11T07:54:31.095Z,99659.59
2022-09-11T07:59:33.380Z,99656.50
2022-09-11T08:04:37.180Z,99659.81
2022-09-11T08:09:39.949Z,99664.75
2022-09-11T08:14:43.305Z,99666.47
2022-09-11T08:19:52.058Z,99669.47
2022-09-11T08:24:53.812Z,99681.41
2022-09-11T08:29:55.838Z,99688.69
2022-09-11T08:34:57.738Z,99692.84
2022-09-11T08:39:59.983Z,99701.50
2022-09-11T08:45:04.206Z,99706.94
2022-09-11T08:50:16.559Z,99698.72
2022-09-11T08:55:43.767Z,99702.38
2022-09-11T09:00:58.496Z,99706.13
2022-09-11T09:06:25.420Z,99717.03
2022-09-11T09:11:59.426Z,99720.47
2022-09-11T09:17:14.780Z,99719.41
2022-09-11T09:22:27.440Z,99720.59
2022-09-11T09:27:34.857Z,99730.63
2022-09-11T09:32:43.921Z,99724.91
2022-09-11T09:37:45.946Z,99730.72
2022-09-11T09:42:53.507Z,99735.34
2022-09-11T09:47:55.130Z,99739.75
2022-09-11T09:53:03.972Z,99740.63
2022-09-11T09:58:07.219Z,99750.16
2022-09-11T10:03:23.307Z,99757.69
2022-09-11T10:08:30.493Z,99763.91
2022-09-11T10:13:34.961Z,99762.66
2022-09-11T10:18:40.265Z,99771.44
2022-09-11T10:24:02.932Z,99782.06
2022-09-11T10:29:14.181Z,99775.97
2022-09-11T10:34:20.300Z,99788.00
2022-09-11T10:39:25.117Z,99797.88
2022-09-11T10:44:28.729Z,99806.09
2022-09-11T10:49:30.532Z,99811.94
2022-09-11T10:54:58.543Z,99806.69
2022-09-11T11:00:13.568Z,99819.66
2022-09-11T11:05:32.431Z,99820.47
2022-09-11T11:10:47.261Z,99826.50
2022-09-11T11:16:17.761Z,99829.59
2022-09-11T11:21:35.270Z,99836.78
2022-09-11T11:26:51.117Z,99855.38
2022-09-11T11:32:17.605Z,99856.59
2022-09-11T11:37:24.722Z,99860.34
2022-09-11T11:42:35.469Z,99861.19
2022-09-11T11:47:45.852Z,99866.03
2022-09-11T11:52:59.347Z,99865.09
2022-09-11T11:58:12.687Z,99875.78
2022-09-11T12:03:30.032Z,99873.03
2022-09-11T12:08:31.730Z,99880.56
2022-09-11T12:13:43.207Z,99883.72
2022-09-11T12:19:19.792Z,99890.63
2022-09-11T12:24:43.227Z,99896.84
2022-09-11T12:29:56.803Z,99888.16
2022-09-11T12:35:02.961Z,99884.56
2022-09-11T12:40:19.175Z,99894.44
2022-09-11T12:45:36.848Z,99891.03
2022-09-11T12:50:39.025Z,99895.00
2022-09-11T12:56:16.669Z,99884.97
2022-09-11T13:01:25.118Z,99874.38
2022-09-11T13:06:40.919Z,99876.00
2022-09-11T13:11:45.603Z,99869.50
2022-09-11T13:16:52.516Z,99877.94
2022-09-11T13:21:55.144Z,99865.88
2022-09-11T13:27:14.006Z,99862.53
2022-09-11T13:32:17.375Z,99852.19
2022-09-11T13:37:37.389Z,99855.25
2022-09-11T13:42:40.395Z,99854.22
2022-09-11T13:47:42.364Z,99853.16
2022-09-11T13:52:45.660Z,99845.53
2022-09-11T13:57:53.106Z,99834.22
2022-09-11T14:02:54.881Z,99834.59
2022-09-11T14:08:01.481Z,99831.28
2022-09-11T14:13:24.699Z,99819.03
2022-09-11T14:18:46.162Z,99830.59
2022-09-11T14:23:55.109Z,99832.19
2022-09-11T14:29:03.313Z,99822.13
2022-09-11T14:34:11.135Z,99821.31
2022-09-11T14:39:15.756Z,99825.22
2022-09-11T14:44:17.960Z,99816.88
2022-09-11T14:49:19.641Z,99816.44
2022-09-11T14:54:22.860Z,99816.44
2022-09-11T14:59:24.914Z,99815.94
2022-09-11T15:04:27.445Z,99820.69
2022-09-11T15:09:29.246Z,99820.81
2022-09-11T15:14:55.041Z,99830.78
2022-09-11T15:19:54.137Z,99827.25
2022-09-11T15:24:56.639Z,99821.09
2022-09-11T15:29:58.267Z,99823.50
2022-09-11T15:34:59.964Z,99825.44
2022-09-11T15:40:02.004Z,99822.91
2022-09-11T15:45:04.244Z,99823.84
2022-09-11T15:50:06.519Z,99826.75
2022-09-11T15:55:09.560Z,99817.44
2022-09-11T16:00:12.067Z,99827.59
2022-09-11T16:05:14.541Z,99839.34
2022-09-11T16:10:16.169Z,99834.28
2022-09-11T16:15:18.266Z,99840.66
2022-09-11T16:20:20.263Z,99831.28
2022-09-11T16:25:22.067Z,99827.03
2022-09-11T16:30:42.483Z,99819.72
2022-09-11T16:35:45.388Z,99816.97
2022-09-11T16:40:47.018Z,99819.72
2022-09-11T16:45:52.672Z,99814.38
2022-09-11T16:50:55.241Z,99814.31
2022-09-11T16:55:56.895Z,99811.84
2022-09-11T17:00:58.886Z,99803.97
2022-09-11T17:06:00.541Z,99818.16
2022-09-11T17:11:02.545Z,99817.19
2022-09-11T17:16:06.793Z,99808.19
2022-09-11T17:21:09.827Z,99807.88
2022-09-11T17:26:14.064Z,99815.88
2022-09-11T17:31:19.168Z,99828.84
2022-09-11T17:36:21.785Z,99825.09
2022-09-11T17:41:23.472Z,99840.94
2022-09-11T17:46:25.213Z,99843.22
2022-09-11T17:51:27.923Z,99843.22
2022-09-11T17:56:33.262Z,99840.72
2022-09-11T18:01:34.961Z,99847.81
2022-09-11T18:06:38.494Z,99854.25
2022-09-11T18:11:43.130Z,99855.94
2022-09-11T18:16:47.309Z,99857.81
2022-09-11T18:21:50.510Z,99854.91
2022-09-11T18:26:58.570Z,99859.69
2022-09-11T18:32:03.496Z,99858.63
2022-09-11T18:37:05.266Z,99856.34
2022-09-11T18:42:07.178Z,99868.84
2022-09-11T18:47:08.784Z,99868.63
2022-09-11T18:52:10.868Z,99870.06
2022-09-11T18:57:12.448Z,99875.09
2022-09-11T19:02:14.482Z,99878.00
2022-09-11T19:07:16.140Z,99894.91
2022-09-11T19:12:17.765Z,99892.25
2022-09-11T19:17:19.479Z,99897.47
2022-09-11T19:22:22.881Z,99901.50
2022-09-11T19:27:26.236Z,99917.34
2022-09-11T19:32:28.195Z,99915.31
2022-09-11T19:37:30.054Z,99918.34
2022-09-11T19:42:32.494Z,99915.28
2022-09-11T19:47:34.148Z,99910.41
2022-09-11T19:52:35.744Z,99906.84
2022-09-11T19:57:37.324Z,99922.16
2022-09-11T20:02:39.124Z,99921.41
2022-09-11T20:07:40.703Z,99916.63
2022-09-11T20:12:42.310Z,99922.34
2022-09-11T20:17:44.858Z,99920.63
2022-09-11T20:22:46.779Z,99920.00
2022-09-11T20:27:48.820Z,99921.19
2022-09-11T20:32:50.725Z,99916.78
2022-09-11T20:37:55.471Z,99913.38
2022-09-11T20:42:57.105Z,99917.88
2022-09-11T20:48:00.493Z,99911.00
2022-09-11T20:53:02.310Z,99906.44
2022-09-11T20:58:05.849Z,99904.56
2022-09-11T21:03:07.437Z,99909.47
2022-09-11T21:08:09.050Z,99918.66
2022-09-11T21:13:14.671Z,99909.84
2022-09-11T21:18:16.413Z,99911.53
2022-09-11T21:23:18.031Z,99912.66
2022-09-11T21:28:19.723Z,99906.88
2022-09-11T21:33:21.390Z,99915.75
2022-09-11T21:38:24.828Z,99912.06
2022-09-11T21:43:27.827Z,99921.81
2022-09-11T21:48:33.641Z,99917.38
2022-09-11T21:53:38.353Z,99912.00
2022-09-11T21:58:39.935Z,99917.28
2022-09-11T22:03:41.738Z,99909.63
2022-09-11T22:08:44.557Z,99908.56
2022-09-11T22:13:47.748Z,99906.25
2022-09-11T22:18:52.927Z,99915.59
2022-09-11T22:23:55.286Z,99906.88
2022-09-11T22:29:00.216Z,99901.59
2022-09-11T22:34:02.080Z,99911.72
2022-09-11T22:39:05.469Z,99906.84
2022-09-11T22:44:08.164Z,99908.91
2022-09-11T22:49:09.995Z,99902.81
2022-09-11T22:54:13.636Z,99910.69
2022-09-11T22:59:15.242Z,99900.94
2022-09-11T23:04:17.026Z,99900.06
2022-09-11T23:09:18.651Z,99904.50
2022-09-11T23:14:20.259Z,99910.03
2022-09-11T23:19:22.513Z,99908.72
2022-09-11T23:24:24.164Z,99908.72
2022-09-11T23:29:25.844Z,99908.13
2022-09-11T23:34:27.501Z,99912.63
2022-09-11T23:39:29.125Z,99912.16
2022-09-11T23:44:30.786Z,99903.25
2022-09-11T23:49:36.198Z,99906.09
2022-09-11T23:54:38.112Z,99898.56
2022-09-11T23:59:39.705Z,99895.06
